Detall de PIREP

Printer-friendly versionPDF version

[2012/11/21 10:40:00]
Flight IATA:CT3113
Pilot Number:011
Company ICAO:CAT
Aircraft Type:F50/A
PAX:50
Aircraft Registration:DREAMWINGS
Departing Airport: LFMP
Destination Airport: LEBL
Alternate Airport:LEPA
Online: VATSIM
Route:KELAM J27 PPG B384 ALBER
Flight Level:F150
No Slew and time accel
No pause
Crash detect
Detect pilot in Cockpit between each 30 and 45 minutes
10:40 Zero fuel Weight: 41042 Lbs, Fuel Weight: 2724 Lbs
10:40 VATSIM:LFMP 210930Z 34007KT 310V020 9000 SCT010 OVC100 13/10 Q1018 NOSIG
10:40 VATSIM:LEBL 210930Z 32008KT 260V020 9999 FEW020 13/09 Q1017 NOSIG
10:41 Parking Brakes off
10:49 Take-off
10:49 Take off Weight: 43711 Lbs
10:49 Wind: 342º @ 007 Knots Heading: 326º
10:49 POS N42º 44´ 34´´ E002º 52´ 16´´
10:49 Flaps:3 at 131 Knots
10:49 Gear Up: 131 Knots
10:50 Flaps:2 at 156 Knots
10:50 Flaps:1 at 157 Knots
10:51 Flaps:0 at 158 Knots
10:58 TOC
10:58 Fuel Weight: 2401 Lb
11:04 Wind:340º@024 Knots Heading: 180º Ground Speed: 286 Knots Altitude 15147 ft
11:16 TOD
11:16 Fuel Weight: 1879 Lb
11:19 Wind:325º@013 Knots Heading: 229º Ground Speed: 265 Knots Altitude 13034 ft
11:34 Wind:320º@010 Knots Heading: 287º Ground Speed: 208 Knots Altitude 4911 ft
11:36 Flaps:1 at 165 Knots
11:36 Flaps:2 at 153 Knots
11:37 Flaps:3 at 140 Knots
11:38 Flaps:4 at 131 Knots
11:38 Gear Down: 131 Knots
11:38 Flaps:5 at 109 Knots
11:38 Flaps:6 at 100 Knots
11:43 TouchDown:Rate -186 ft/min Speed: 87 Knots
11:43 VATSIM:LEBL 211100Z 32005KT 9999 FEW025 16/12 Q1017 NOSIG
11:43 Land
11:43 Wind:322º@005 Knots
11:43 Heading: 019º
11:43 Flight Duration: 00:54
11:43 Landing Weight: 42490 Lbs
11:43 POS N41º 18´ 09´´ E002º 05´ 29´´
11:51 Parking brakes on
11:51 Block to Block Duration: 01:10
11:51 Final Fuel: 1377 Lbls
11:51 Spent Fuel: 1347 Lbls
11:51 Flight Length: 204 NM
11:51 TOD Land Length: 94 NM

Exportar CSV

Powered by Drupal - Modified by Danger4k